Date,TemperatureHighF,TemperatureAvgF,TemperatureLowF,DewpointHighF,DewpointAvgF,DewpointLowF,HumidityHigh,HumidityAvg,HumidityLow,PressureMaxIn,PressureMinIn,WindSpeedMaxMPH,WindSpeedAvgMPH,GustSpeedMaxMPH,PrecipitationSumIn
2013-7-1,89.0,75.9,71.0,77.8,73.0,68.3,98,91,67,30.12,29.93,6,1,11,0.00
2013-7-2,82.0,75.2,71.2,78.8,72.8,70.5,99,92,80,30.15,30.02,5,1,7,0.00
2013-7-3,84.8,77.8,72.8,75.6,73.4,70.6,98,87,74,30.18,30.10,6,2,8,0.00
2013-7-4,85.8,77.8,72.3,75.0,72.2,69.9,96,83,69,30.21,30.13,7,2,10,0.00
2013-7-5,84.5,78.1,72.5,75.0,72.5,67.6,93,83,71,30.20,30.11,6,2,10,0.00
2013-7-6,84.8,78.1,73.7,75.7,72.6,69.9,94,83,69,30.19,30.10,6,2,9,0.00
2013-7-7,86.5,79.2,72.2,77.3,73.5,70.0,97,83,68,30.19,30.09,6,1,8,0.00
2013-7-8,88.1,80.8,74.8,78.8,74.5,72.3,97,82,66,30.21,30.13,5,1,7,0.00
2013-7-9,85.6,79.4,73.4,76.1,73.1,68.5,93,81,63,30.23,30.10,7,1,10,0.00
2013-7-10,84.7,79.2,73.1,76.1,72.7,70.5,94,81,67,30.14,30.03,6,2,9,0.00
2013-7-11,88.7,79.9,74.6,78.7,73.3,69.2,94,80,57,30.09,29.98,6,2,8,0.00
2013-7-12,88.3,77.6,72.1,75.9,72.0,67.7,96,84,63,30.02,29.91,10,1,13,0.00
2013-7-13,84.3,75.5,71.3,77.8,72.8,70.4,99,92,72,30.05,29.96,5,1,8,0.00
2013-7-14,83.0,75.0,70.7,75.3,71.6,69.3,96,89,75,30.14,30.03,6,1,9,0.00
2013-7-15,82.5,75.9,70.6,75.4,72.5,69.6,98,89,76,30.16,30.07,4,2,7,0.00
2013-7-16,86.3,76.9,73.3,74.7,72.3,69.3,96,86,68,30.21,20.01,4,1,6,0.00
2013-7-17,83.3,76.8,72.5,76.9,73.4,68.4,97,89,75,30.20,30.11,10,1,15,0.00
2013-7-18,84.5,77.0,73.1,76.1,73.4,71.8,98,89,71,30.18,30.09,6,1,8,0.00
2013-7-19,86.0,78.2,72.7,78.0,74.4,70.5,97,88,71,30.18,30.08,6,2,9,0.00
2013-7-20,86.2,77.7,72.1,80.7,74.7,69.4,97,90,78,30.17,30.06,6,1,12,0.00
2013-7-21,90.5,77.3,72.1,77.4,73.7,70.5,98,89,63,30.18,30.08,9,2,14,0.00
2013-7-22,91.9,79.1,72.3,77.3,72.9,67.0,98,82,59,30.18,30.09,6,2,9,0.00
2013-7-23,93.3,80.7,74.1,77.1,72.9,68.9,95,78,50,30.14,29.99,6,1,9,0.00
2013-7-24,91.0,78.9,74.9,76.4,73.6,67.5,97,84,56,30.06,29.93,6,2,9,0.00
2013-7-25,84.7,78.4,73.1,77.2,74.7,72.2,100,88,73,30.03,29.92,6,2,10,0.00
2013-7-26,86.0,79.1,73.9,77.5,74.7,72.2,100,87,72,30.05,29.98,5,1,6,0.00
2013-7-27,86.8,80.2,73.6,79.1,75.2,72.9,99,85,72,30.04,29.95,6,1,8,0.00
2013-7-28,88.5,79.8,75.0,76.5,73.8,68.7,96,82,66,30.11,29.96,7,1,9,0.00
2013-7-29,87.4,79.7,72.7,78.1,74.0,71.0,97,83,66,30.20,30.06,4,1,6,0.00
2013-7-30,87.2,80.6,74.6,79.3,75.5,73.4,98,85,69,30.23,30.13,6,1,7,0.00
2013-7-31,89.4,81.9,75.9,80.3,76.0,72.9,98,82,66,30.18,30.05,6,2,9,0.00